createdAt,value
2018-08-12T00:01:05.135Z,100040.00
2018-08-12T00:06:39.125Z,100034.00
2018-08-12T00:09:13.788Z,100026.00
2018-08-12T00:12:25.537Z,99978.00
2018-08-12T00:17:47.910Z,100024.00
2018-08-12T00:20:20.502Z,100013.00
2018-08-12T00:22:51.375Z,100021.00
2018-08-12T00:25:23.451Z,100018.00
2018-08-12T00:27:55.975Z,100016.00
2018-08-12T00:30:28.281Z,100023.00
2018-08-12T00:35:45.941Z,100010.00
2018-08-12T00:38:18.816Z,100009.00
2018-08-12T00:40:49.620Z,100004.00
2018-08-12T00:43:21.962Z,100004.00
2018-08-12T00:45:53.331Z,99989.00
2018-08-12T00:48:24.324Z,99989.00
2018-08-12T00:50:55.390Z,99984.00
2018-08-12T00:53:27.304Z,99977.00
2018-08-12T00:55:58.349Z,99968.00
2018-08-12T00:58:29.794Z,99968.00
2018-08-12T01:01:08.059Z,99959.00
2018-08-12T01:03:43.374Z,99959.00
2018-08-12T01:06:17.544Z,99957.00
2018-08-12T01:08:50.717Z,99948.00
2018-08-12T01:11:24.568Z,99939.00
2018-08-12T01:13:54.804Z,99942.00
2018-08-12T01:19:16.578Z,99940.00
2018-08-12T01:21:52.076Z,99931.00
2018-08-12T01:24:22.600Z,99928.00
2018-08-12T01:26:53.642Z,99925.00
2018-08-12T01:29:24.896Z,99931.00
2018-08-12T01:31:56.624Z,99930.00
2018-08-12T01:34:37.140Z,99927.00
2018-08-12T01:37:11.409Z,99926.00
2018-08-12T01:39:44.671Z,99922.00
2018-08-12T01:42:17.279Z,99924.00
2018-08-12T01:47:38.154Z,99914.00
2018-08-12T01:50:17.178Z,99913.00
2018-08-12T01:52:47.702Z,99900.00
2018-08-12T01:55:18.485Z,99905.00
2018-08-12T01:57:49.317Z,99895.00
2018-08-12T02:00:22.085Z,99898.00
2018-08-12T02:02:52.019Z,99894.00
2018-08-12T02:05:22.290Z,99894.00
2018-08-12T02:07:52.345Z,99893.00
2018-08-12T02:10:22.718Z,99882.00
2018-08-12T02:12:52.984Z,99882.00
2018-08-12T02:15:23.292Z,99882.00
2018-08-12T02:17:53.707Z,99873.00
2018-08-12T02:20:24.004Z,99867.00
2018-08-12T02:25:49.895Z,99861.00
2018-08-12T02:28:33.937Z,99857.00
2018-08-12T02:34:04.190Z,99852.00
2018-08-12T02:36:48.290Z,99846.00
2018-08-12T02:39:24.046Z,99845.00
2018-08-12T02:44:55.568Z,99836.00
2018-08-12T02:47:25.844Z,99832.00
2018-08-12T02:50:21.095Z,99828.00
2018-08-12T02:52:57.279Z,99825.00
2018-08-12T02:55:32.580Z,99818.00
2018-08-12T02:58:04.776Z,99810.00
2018-08-12T03:00:35.089Z,99811.00
2018-08-12T03:03:08.226Z,99799.00
2018-08-12T03:05:39.644Z,99804.00
2018-08-12T03:08:10.370Z,99797.00
2018-08-12T03:10:42.595Z,99796.00
2018-08-12T03:13:13.225Z,99789.00
2018-08-12T03:15:43.386Z,99791.00
2018-08-12T03:18:13.772Z,99780.00
2018-08-12T03:20:44.269Z,99776.00
2018-08-12T03:23:15.138Z,99770.00
2018-08-12T03:25:45.948Z,99765.00
2018-08-12T03:28:15.880Z,99760.00
2018-08-12T03:30:46.163Z,99761.00
2018-08-12T03:33:16.469Z,99755.00
2018-08-12T03:35:46.703Z,99759.00
2018-08-12T03:38:16.846Z,99763.00
2018-08-12T03:40:47.405Z,99760.00
2018-08-12T03:43:17.530Z,99754.00
2018-08-12T03:45:47.937Z,99743.00
2018-08-12T03:48:18.617Z,99757.00
2018-08-12T03:50:49.045Z,99747.00
2018-08-12T03:53:19.421Z,99742.00
2018-08-12T03:55:50.278Z,99740.00
2018-08-12T03:58:20.657Z,99734.00
2018-08-12T04:00:50.937Z,99738.00
2018-08-12T04:03:22.489Z,99719.00
2018-08-12T04:05:53.010Z,99731.00
2018-08-12T04:08:23.409Z,99736.00
2018-08-12T04:10:53.789Z,99732.00
2018-08-12T04:13:24.754Z,99723.00
2018-08-12T04:15:54.851Z,99720.00
2018-08-12T04:18:28.388Z,99718.00
2018-08-12T04:20:58.642Z,99721.00
2018-08-12T04:23:28.747Z,99709.00
2018-08-12T04:25:59.322Z,99711.00
2018-08-12T04:28:29.627Z,99709.00
2018-08-12T04:31:00.864Z,99709.00
2018-08-12T04:33:31.207Z,99718.00
2018-08-12T04:36:01.663Z,99719.00
2018-08-12T04:38:31.991Z,99713.00
2018-08-12T04:41:02.373Z,99713.00
2018-08-12T04:43:32.463Z,99708.00
2018-08-12T04:46:03.033Z,99716.00
2018-08-12T04:48:33.783Z,99712.00
2018-08-12T04:51:04.318Z,99712.00
2018-08-12T04:53:34.690Z,99711.00
2018-08-12T04:56:04.859Z,99712.00
2018-08-12T04:58:35.021Z,99711.00
2018-08-12T05:01:05.278Z,99715.00
2018-08-12T05:03:35.484Z,99716.00
2018-08-12T05:06:05.728Z,99709.00
2018-08-12T05:08:36.082Z,99709.00
2018-08-12T05:11:06.532Z,99714.00
2018-08-12T05:13:36.681Z,99698.00
2018-08-12T05:16:07.556Z,99705.00
2018-08-12T05:18:37.763Z,99701.00
2018-08-12T05:21:09.098Z,99706.00
2018-08-12T05:23:40.270Z,99706.00
2018-08-12T05:26:10.741Z,99702.00
2018-08-12T05:28:41.020Z,99701.00
2018-08-12T05:31:11.360Z,99705.00
2018-08-12T05:33:42.248Z,99692.00
2018-08-12T05:36:12.860Z,99693.00
2018-08-12T05:38:42.812Z,99691.00
2018-08-12T05:41:13.300Z,99681.00
2018-08-12T05:43:43.484Z,99684.00
2018-08-12T05:46:14.356Z,99686.00
2018-08-12T05:48:44.338Z,99678.00
2018-08-12T05:51:14.592Z,99679.00
2018-08-12T05:53:44.749Z,99691.00
2018-08-12T05:56:15.976Z,99679.00
2018-08-12T05:58:46.554Z,99683.00
2018-08-12T06:01:17.111Z,99678.00
2018-08-12T06:03:47.334Z,99670.00
2018-08-12T06:06:17.467Z,99679.00
2018-08-12T06:08:47.629Z,99676.00
2018-08-12T06:11:17.897Z,99674.00
2018-08-12T06:13:48.467Z,99673.00
2018-08-12T06:16:18.696Z,99674.00
2018-08-12T06:18:49.088Z,99671.00
2018-08-12T06:21:19.093Z,99665.00
2018-08-12T06:23:49.597Z,99668.00
2018-08-12T06:26:20.026Z,99671.00
2018-08-12T06:28:50.051Z,99683.00
2018-08-12T06:31:20.934Z,99668.00
2018-08-12T06:33:51.202Z,99661.00
2018-08-12T06:36:21.429Z,99672.00
2018-08-12T06:38:52.521Z,99655.00
2018-08-12T06:41:23.385Z,99639.00
2018-08-12T06:43:53.914Z,99655.00
2018-08-12T06:46:24.224Z,99644.00
2018-08-12T06:48:54.491Z,99649.00
2018-08-12T06:51:24.598Z,99648.00
2018-08-12T06:53:55.394Z,99641.00
2018-08-12T06:56:25.630Z,99655.00
2018-08-12T06:58:55.653Z,99646.00
2018-08-12T07:01:25.592Z,99638.00
2018-08-12T07:03:55.941Z,99634.00
2018-08-12T07:06:26.395Z,99640.00
2018-08-12T07:08:56.608Z,99646.00
2018-08-12T07:11:28.670Z,99635.00
2018-08-12T07:13:59.326Z,99643.00
2018-08-12T07:16:29.614Z,99645.00
2018-08-12T07:19:07.474Z,99634.00
2018-08-12T07:21:37.690Z,99632.00
2018-08-12T07:24:08.037Z,99634.00
2018-08-12T07:26:38.371Z,99625.00
2018-08-12T07:29:09.848Z,99636.00
2018-08-12T07:31:40.395Z,99632.00
2018-08-12T07:34:10.622Z,99633.00
2018-08-12T07:36:40.812Z,99630.00
2018-08-12T07:39:11.654Z,99626.00
2018-08-12T07:41:42.665Z,99624.00
2018-08-12T07:44:13.665Z,99622.00
2018-08-12T07:46:45.157Z,99616.00
2018-08-12T07:49:15.433Z,99611.00
2018-08-12T07:51:46.507Z,99619.00
2018-08-12T07:54:16.670Z,99613.00
2018-08-12T07:56:47.042Z,99610.00
2018-08-12T07:59:17.444Z,99606.00
2018-08-12T08:01:48.672Z,99603.00
2018-08-12T08:04:19.428Z,99608.00
2018-08-12T08:06:50.418Z,99611.00
2018-08-12T08:09:20.858Z,99602.00
2018-08-12T08:11:51.204Z,99598.00
2018-08-12T08:14:21.291Z,99605.00
2018-08-12T08:16:51.818Z,99601.00
2018-08-12T08:19:23.040Z,99607.00
2018-08-12T08:21:53.162Z,99599.00
2018-08-12T08:24:24.306Z,99597.00
2018-08-12T08:26:54.527Z,99604.00
2018-08-12T08:29:24.801Z,99605.00
2018-08-12T08:31:55.247Z,99597.00
2018-08-12T08:34:25.847Z,99589.00
2018-08-12T08:36:57.420Z,99602.00
2018-08-12T08:39:27.448Z,99600.00
2018-08-12T08:41:57.568Z,99595.00
2018-08-12T08:44:28.466Z,99599.00
2018-08-12T08:46:58.887Z,99595.00
2018-08-12T08:49:29.089Z,99593.00
2018-08-12T08:51:59.517Z,99596.00
2018-08-12T08:54:30.638Z,99593.00
2018-08-12T08:57:01.533Z,99587.00
2018-08-12T08:59:31.847Z,99593.00
2018-08-12T09:02:02.029Z,99592.00
2018-08-12T09:04:33.680Z,99581.00
2018-08-12T09:07:03.988Z,99594.00
2018-08-12T09:09:34.376Z,99586.00
2018-08-12T09:12:04.557Z,99587.00
2018-08-12T09:14:35.066Z,99582.00
2018-08-12T09:17:05.327Z,99588.00
2018-08-12T09:19:35.672Z,99583.00
2018-08-12T09:22:06.661Z,99573.00
2018-08-12T09:24:37.243Z,99577.00
2018-08-12T09:27:07.636Z,99586.00
2018-08-12T09:29:38.658Z,99595.00
2018-08-12T09:32:08.972Z,99574.00
2018-08-12T09:34:39.548Z,99573.00
2018-08-12T09:37:10.248Z,99573.00
2018-08-12T09:39:40.713Z,99577.00
2018-08-12T09:42:11.026Z,99577.00
2018-08-12T09:44:41.314Z,99574.00
2018-08-12T09:47:11.497Z,99570.00
2018-08-12T09:49:41.827Z,99561.00
2018-08-12T09:52:11.945Z,99556.00
2018-08-12T09:54:42.205Z,99568.00
2018-08-12T09:57:12.393Z,99566.00
2018-08-12T09:59:42.646Z,99562.00
2018-08-12T10:02:12.710Z,99554.00
2018-08-12T10:04:43.132Z,99560.00
2018-08-12T10:07:14.767Z,99571.00
2018-08-12T10:09:45.648Z,99561.00
2018-08-12T10:12:16.529Z,99560.00
2018-08-12T10:14:47.774Z,99571.00
2018-08-12T10:17:18.371Z,99563.00
2018-08-12T10:19:49.638Z,99580.00
2018-08-12T10:22:20.677Z,99569.00
2018-08-12T10:24:52.778Z,99575.00
2018-08-12T10:27:23.013Z,99560.00
2018-08-12T10:29:53.518Z,99572.00
2018-08-12T10:32:24.105Z,99568.00
2018-08-12T10:34:55.151Z,99577.00
2018-08-12T10:37:26.777Z,99580.00
2018-08-12T10:39:57.474Z,99578.00
2018-08-12T10:42:28.256Z,99581.00
2018-08-12T10:44:58.755Z,99583.00
2018-08-12T10:47:28.981Z,99587.00
2018-08-12T10:49:59.207Z,99588.00
2018-08-12T10:52:29.997Z,99568.00
2018-08-12T10:55:00.955Z,99565.00
2018-08-12T10:57:31.879Z,99565.00
2018-08-12T11:00:03.553Z,99566.00
2018-08-12T11:07:28.803Z,99573.00
2018-08-12T11:09:59.095Z,99584.00
2018-08-12T11:12:29.957Z,99582.00
2018-08-12T11:15:00.332Z,99574.00
2018-08-12T11:17:30.732Z,99586.00
2018-08-12T11:20:01.419Z,99584.00
2018-08-12T11:22:32.251Z,99596.00
2018-08-12T11:25:02.895Z,99589.00
2018-08-12T11:27:34.265Z,99592.00
2018-08-12T11:30:06.746Z,99585.00
2018-08-12T11:32:38.628Z,99578.00
2018-08-12T11:35:12.325Z,99582.00
2018-08-12T11:37:45.463Z,99569.00
2018-08-12T11:40:16.611Z,99573.00
2018-08-12T11:42:47.816Z,99565.00
2018-08-12T11:45:19.226Z,99571.00
2018-08-12T11:47:50.529Z,99562.00
2018-08-12T11:50:20.853Z,99557.00
2018-08-12T11:52:52.086Z,99560.00
2018-08-12T11:55:22.866Z,99555.00
2018-08-12T11:57:53.190Z,99562.00
2018-08-12T12:00:24.187Z,99555.00
2018-08-12T12:02:54.608Z,99552.00
2018-08-12T12:05:24.756Z,99554.00
2018-08-12T12:07:55.486Z,99542.00
2018-08-12T12:10:26.314Z,99549.00
2018-08-12T12:12:58.589Z,99546.00
2018-08-12T12:15:29.279Z,99544.00
2018-08-12T12:18:00.046Z,99549.00
2018-08-12T12:20:30.647Z,99528.00
2018-08-12T12:23:01.761Z,99529.00
2018-08-12T12:25:33.076Z,99530.00
2018-08-12T12:28:03.713Z,99527.00
2018-08-12T12:30:35.467Z,99520.00
2018-08-12T12:33:07.101Z,99524.00
2018-08-12T12:35:38.902Z,99527.00
2018-08-12T12:38:10.077Z,99527.00
2018-08-12T12:40:40.098Z,99523.00
2018-08-12T12:43:11.280Z,99506.00
2018-08-12T12:45:42.729Z,99510.00
2018-08-12T12:48:14.173Z,99493.00
2018-08-12T12:50:44.401Z,99494.00
2018-08-12T12:53:16.920Z,99491.00
2018-08-12T12:55:48.498Z,99494.00
2018-08-12T12:58:19.723Z,99484.00
2018-08-12T13:00:49.871Z,99495.00
2018-08-12T13:03:21.124Z,99491.00
2018-08-12T13:05:52.716Z,99496.00
2018-08-12T13:08:23.718Z,99493.00
2018-08-12T13:10:53.817Z,99497.00
2018-08-12T13:13:25.497Z,99505.00
2018-08-12T13:15:56.628Z,99497.00
2018-08-12T13:18:26.899Z,99503.00
2018-08-12T13:20:57.496Z,99505.00
2018-08-12T13:23:28.230Z,99500.00
2018-08-12T13:25:59.410Z,99500.00
2018-08-12T13:28:30.999Z,99496.00
2018-08-12T13:31:01.331Z,99497.00
2018-08-12T13:33:31.676Z,99486.00
2018-08-12T13:36:01.886Z,99479.00
2018-08-12T13:38:33.085Z,99479.00
2018-08-12T13:41:04.366Z,99475.00
2018-08-12T13:43:34.379Z,99481.00
2018-08-12T13:46:04.467Z,99477.00
2018-08-12T13:48:34.762Z,99468.00
2018-08-12T13:51:04.909Z,99472.00
2018-08-12T13:53:35.182Z,99468.00
2018-08-12T13:56:05.850Z,99469.00
2018-08-12T13:58:36.318Z,99471.00
2018-08-12T14:01:06.782Z,99460.00
2018-08-12T14:03:37.288Z,99466.00
2018-08-12T14:06:07.856Z,99465.00
2018-08-12T14:08:40.014Z,99471.00
2018-08-12T14:11:11.645Z,99469.00
2018-08-12T14:13:41.991Z,99460.00
2018-08-12T14:16:12.246Z,99459.00
2018-08-12T14:18:42.429Z,99455.00
2018-08-12T14:21:13.630Z,99455.00
2018-08-12T14:23:46.660Z,99453.00
2018-08-12T14:26:18.181Z,99451.00
2018-08-12T14:28:48.734Z,99451.00
2018-08-12T14:31:24.542Z,99455.00
2018-08-12T14:33:55.453Z,99450.00
2018-08-12T14:36:28.020Z,99450.00
2018-08-12T14:38:59.401Z,99451.00
2018-08-12T14:41:30.421Z,99446.00
2018-08-12T14:44:02.508Z,99442.00
2018-08-12T14:46:32.729Z,99440.00
2018-08-12T14:49:03.719Z,99431.00
2018-08-12T14:51:34.050Z,99434.00
2018-08-12T14:54:05.472Z,99429.00
2018-08-12T14:56:37.487Z,99419.00
2018-08-12T14:59:08.113Z,99426.00
2018-08-12T15:01:38.950Z,99414.00
2018-08-12T15:04:09.777Z,99413.00
2018-08-12T15:06:40.802Z,99416.00
2018-08-12T15:09:12.551Z,99414.00
2018-08-12T15:11:44.586Z,99416.00
2018-08-12T15:14:16.826Z,99429.00
2018-08-12T15:16:47.299Z,99413.00
2018-08-12T15:19:17.630Z,99413.00
2018-08-12T15:21:49.029Z,99418.00
2018-08-12T15:24:20.202Z,99416.00
2018-08-12T15:26:51.504Z,99408.00
2018-08-12T15:29:22.656Z,99404.00
2018-08-12T15:31:52.990Z,99395.00
2018-08-12T15:34:24.353Z,99401.00
2018-08-12T15:36:55.249Z,99396.00
2018-08-12T15:39:25.504Z,99407.00
2018-08-12T15:41:55.782Z,99400.00
2018-08-12T15:44:28.382Z,99397.00
2018-08-12T15:47:00.135Z,99395.00
2018-08-12T15:49:31.004Z,99387.00
2018-08-12T15:52:01.933Z,99388.00
2018-08-12T15:54:32.694Z,99381.00
2018-08-12T15:57:03.223Z,99391.00
2018-08-12T15:59:33.894Z,99386.00
2018-08-12T16:02:04.149Z,99374.00
2018-08-12T16:04:35.104Z,99376.00
2018-08-12T16:07:08.470Z,99386.00
2018-08-12T16:09:46.091Z,99379.00
2018-08-12T16:12:17.680Z,99372.00
2018-08-12T16:14:49.452Z,99375.00
2018-08-12T16:17:19.723Z,99375.00
2018-08-12T16:19:50.248Z,99378.00
2018-08-12T16:22:20.522Z,99381.00
2018-08-12T16:24:52.318Z,99383.00
2018-08-12T16:27:22.565Z,99382.00
2018-08-12T16:29:52.968Z,99383.00
2018-08-12T16:32:23.236Z,99384.00
2018-08-12T16:34:54.638Z,99374.00
2018-08-12T16:37:25.488Z,99378.00
2018-08-12T16:39:55.728Z,99372.00
2018-08-12T16:42:26.254Z,99373.00
2018-08-12T16:44:57.090Z,99376.00
2018-08-12T16:47:28.741Z,99368.00
2018-08-12T16:49:59.962Z,99367.00
2018-08-12T16:52:30.566Z,99375.00
2018-08-12T16:55:01.901Z,99379.00
2018-08-12T16:57:33.993Z,99381.00
2018-08-12T17:00:05.582Z,99372.00
2018-08-12T17:02:37.721Z,99364.00
2018-08-12T17:05:12.333Z,99368.00
2018-08-12T17:07:43.394Z,99365.00
2018-08-12T17:10:15.689Z,99373.00
2018-08-12T17:12:46.773Z,99363.00
2018-08-12T17:15:20.771Z,99366.00
2018-08-12T17:17:52.087Z,99358.00
2018-08-12T17:20:23.028Z,99357.00
2018-08-12T17:22:53.258Z,99356.00
2018-08-12T17:25:23.461Z,99343.00
2018-08-12T17:27:53.754Z,99340.00
2018-08-12T17:30:25.017Z,99340.00
2018-08-12T17:32:57.069Z,99339.00
2018-08-12T17:35:27.971Z,99327.00
2018-08-12T17:37:59.063Z,99326.00
2018-08-12T17:40:30.034Z,99320.00
2018-08-12T17:43:01.691Z,99328.00
2018-08-12T17:45:38.673Z,99333.00
2018-08-12T17:48:10.477Z,99327.00
2018-08-12T17:50:41.625Z,99334.00
2018-08-12T17:53:12.093Z,99345.00
2018-08-12T17:55:42.833Z,99326.00
2018-08-12T17:58:14.694Z,99326.00
2018-08-12T18:00:46.760Z,99322.00
2018-08-12T18:03:18.417Z,99320.00
2018-08-12T18:05:49.611Z,99322.00
2018-08-12T18:08:20.187Z,99317.00
2018-08-12T18:10:51.362Z,99319.00
2018-08-12T18:13:21.582Z,99315.00
2018-08-12T18:15:52.863Z,99308.00
2018-08-12T18:18:24.741Z,99313.00
2018-08-12T18:20:55.711Z,99312.00
2018-08-12T18:23:27.105Z,99313.00
2018-08-12T18:25:58.072Z,99311.00
2018-08-12T18:28:32.802Z,99313.00
2018-08-12T18:31:05.227Z,99320.00
2018-08-12T18:33:37.033Z,99317.00
2018-08-12T18:36:08.454Z,99311.00
2018-08-12T18:38:40.733Z,99318.00
2018-08-12T18:41:11.922Z,99314.00
2018-08-12T18:43:44.190Z,99252.00
2018-08-12T18:46:15.385Z,99314.00
2018-08-12T18:48:46.861Z,99313.00
2018-08-12T18:51:19.140Z,99313.00
2018-08-12T18:53:52.052Z,99315.00
2018-08-12T18:56:23.706Z,99316.00
2018-08-12T18:58:54.158Z,99317.00
2018-08-12T19:01:30.799Z,99321.00
2018-08-12T19:04:06.432Z,99321.00
2018-08-12T19:06:38.640Z,99326.00
2018-08-12T19:09:12.225Z,99327.00
2018-08-12T19:11:42.314Z,99329.00
2018-08-12T19:14:15.273Z,99326.00
2018-08-12T19:16:50.608Z,99328.00
2018-08-12T19:19:22.429Z,99312.00
2018-08-12T19:21:54.171Z,99319.00
2018-08-12T19:24:24.857Z,99326.00
2018-08-12T19:26:55.354Z,99326.00
2018-08-12T19:29:25.755Z,99339.00
2018-08-12T19:31:57.291Z,99327.00
2018-08-12T19:34:27.352Z,99334.00
2018-08-12T19:36:58.131Z,99336.00
2018-08-12T19:39:28.442Z,99332.00
2018-08-12T19:41:59.431Z,99337.00
2018-08-12T19:44:30.093Z,99312.00
2018-08-12T19:47:01.591Z,99337.00
2018-08-12T19:49:33.719Z,99325.00
2018-08-12T19:52:04.217Z,99321.00
2018-08-12T19:54:35.532Z,99319.00
2018-08-12T19:57:05.778Z,99306.00
2018-08-12T19:59:36.253Z,99310.00
2018-08-12T20:02:07.655Z,99305.00
2018-08-12T20:07:26.034Z,99299.00
2018-08-12T20:09:57.420Z,99292.00
2018-08-12T20:12:28.539Z,99293.00
2018-08-12T20:14:58.603Z,99296.00
2018-08-12T20:17:30.534Z,99289.00
2018-08-12T20:20:00.940Z,99293.00
2018-08-12T20:22:31.089Z,99288.00
2018-08-12T20:25:01.780Z,99281.00
2018-08-12T20:27:40.336Z,99277.00
2018-08-12T20:30:13.258Z,99271.00
2018-08-12T20:32:43.739Z,99279.00
2018-08-12T20:35:15.510Z,99284.00
2018-08-12T20:37:46.123Z,99280.00
2018-08-12T20:40:17.356Z,99282.00
2018-08-12T20:42:49.431Z,99285.00
2018-08-12T20:45:22.379Z,99288.00
2018-08-12T20:47:53.305Z,99293.00
2018-08-12T20:50:25.390Z,99282.00
2018-08-12T20:52:56.162Z,99282.00
2018-08-12T20:55:26.402Z,99279.00
2018-08-12T20:57:56.522Z,99276.00
2018-08-12T21:00:27.312Z,99276.00
2018-08-12T21:02:58.029Z,99274.00
2018-08-12T21:05:28.730Z,99275.00
2018-08-12T21:08:00.689Z,99281.00
2018-08-12T21:10:32.351Z,99276.00
2018-08-12T21:13:03.780Z,99276.00
2018-08-12T21:15:34.070Z,99271.00
2018-08-12T21:18:04.481Z,99279.00
2018-08-12T21:20:35.573Z,99278.00
2018-08-12T21:23:06.043Z,99273.00
2018-08-12T21:25:36.347Z,99265.00
2018-08-12T21:28:08.359Z,99267.00
2018-08-12T21:30:38.602Z,99269.00
2018-08-12T21:33:10.157Z,99261.00
2018-08-12T21:35:41.070Z,99262.00
2018-08-12T21:38:11.568Z,99266.00
2018-08-12T21:40:48.553Z,99266.00
2018-08-12T21:43:19.850Z,99264.00
2018-08-12T21:45:51.170Z,99259.00
2018-08-12T21:48:21.542Z,99261.00
2018-08-12T21:50:52.134Z,99262.00
2018-08-12T21:53:23.224Z,99256.00
2018-08-12T21:55:57.570Z,99262.00
2018-08-12T21:58:29.630Z,99270.00
2018-08-12T22:01:00.426Z,99261.00
2018-08-12T22:03:31.561Z,99257.00
2018-08-12T22:06:02.940Z,99255.00
2018-08-12T22:08:32.925Z,99259.00
2018-08-12T22:11:03.754Z,99265.00
2018-08-12T22:13:36.328Z,99256.00
2018-08-12T22:16:08.024Z,99252.00
2018-08-12T22:18:38.101Z,99244.00
2018-08-12T22:21:09.746Z,99242.00
2018-08-12T22:23:40.711Z,99238.00
2018-08-12T22:26:11.040Z,99238.00
2018-08-12T22:28:43.076Z,99237.00
2018-08-12T22:31:13.922Z,99238.00
2018-08-12T22:33:44.175Z,99242.00
2018-08-12T22:36:16.053Z,99237.00
2018-08-12T22:38:46.486Z,99232.00
2018-08-12T22:41:17.477Z,99236.00
2018-08-12T22:43:48.765Z,99228.00
2018-08-12T22:46:19.928Z,99237.00
2018-08-12T22:48:50.734Z,99248.00
2018-08-12T22:51:21.154Z,99236.00
2018-08-12T22:53:52.736Z,99246.00
2018-08-12T22:56:22.992Z,99241.00
2018-08-12T22:58:53.080Z,99247.00
2018-08-12T23:01:25.719Z,99245.00
2018-08-12T23:03:56.305Z,99242.00
2018-08-12T23:06:27.151Z,99246.00
2018-08-12T23:08:58.562Z,99239.00
2018-08-12T23:11:29.166Z,99241.00
2018-08-12T23:13:59.830Z,99239.00
2018-08-12T23:16:46.465Z,99239.00
2018-08-12T23:19:16.832Z,99242.00
2018-08-12T23:21:48.593Z,99248.00
2018-08-12T23:24:19.153Z,99244.00
2018-08-12T23:26:49.782Z,99250.00
2018-08-12T23:29:19.965Z,99242.00
2018-08-12T23:31:51.497Z,99250.00
2018-08-12T23:34:21.812Z,99238.00
2018-08-12T23:36:52.857Z,99245.00
2018-08-12T23:39:23.274Z,99244.00
2018-08-12T23:41:53.354Z,99221.00
2018-08-12T23:44:23.865Z,99231.00
2018-08-12T23:46:55.685Z,99236.00
2018-08-12T23:49:26.966Z,99231.00
2018-08-12T23:51:57.378Z,99232.00
2018-08-12T23:54:28.014Z,99240.00
2018-08-12T23:56:58.214Z,99232.00
2018-08-12T23:59:28.709Z,99225.00
